Terminal Aerodrome Forecast
Issued by NWS

Home | Current Version | Previous Version | Text Only | Print | Product List | Glossary On
Versions: 1 2 3 4 5 6 7 8 9 10 11 12 13
811
FTUS43 KMQT 202327
TAFIWD
TAF
KIWD 202327Z 2100/2124 18012KT P6SM SCT200
     FM210200 18012KT P6SM FEW200 WS010/19045KT
     FM211000 18012KT P6SM BKN150
     FM211700 18013G21KT P6SM BKN040=

USA.gov is the U.S. government's official web portal to all federal, state and local government web resources and services.